Terminal Aerodrome Forecast
Issued by NWS

Current Version | Previous Version | Text Only | Print | Product List | Glossary On
Versions: 1 2 3 4 5 6 7 8 9 10 11 12
000
FTUS45 KREV 301700
TAFMMH
TAF
KMMH 301724Z 3018/3118 24010G18KT P6SM FEW180
     FM302000 28018G30KT P6SM SCT180 BKN250
     FM310400 12006KT P6SM SKC=

USA.gov is the U.S. government's official web portal to all federal, state and local government web resources and services.